TimeCST,TemperatureF,Dew PointF,Humidity,Sea Level PressureIn,VisibilityMPH,Wind Direction,Wind SpeedMPH,Gust SpeedMPH,PrecipitationIn,Events,Conditions,WindDirDegrees,DateUTC
12:15 AM,73.8,69.8,87,29.82,4.0,WSW,9.2,19.6,0.05,Rain-Thunderstorm,Heavy Thunderstorms and Rain,240,2013-12-22 06:15:00
12:35 AM,73.6,69.8,88,29.82,4.0,SW,9.2,-,0.22,Rain-Thunderstorm,Heavy Thunderstorms and Rain,220,2013-12-22 06:35:00
12:55 AM,73.9,69.8,87,29.82,5.0,SSW,13.8,23.0,0.34,Rain-Thunderstorm,Light Thunderstorms and Rain,210,2013-12-22 06:55:00
1:15 AM,74.3,70.0,86,29.83,7.0,SW,15.0,21.9,0.02,Rain-Thunderstorm,Light Thunderstorms and Rain,230,2013-12-22 07:15:00
1:35 AM,64.2,60.1,86,29.85,7.0,NNW,10.4,-,0.09,Rain,Heavy Rain,330,2013-12-22 07:35:00
1:55 AM,61.9,58.1,87,29.87,10.0,NW,9.2,-,0.11,Rain-Thunderstorm,Rain,320,2013-12-22 07:55:00
2:15 AM,61.2,57.4,87,29.89,5.0,NW,11.5,-,0.02,Rain-Thunderstorm,Rain,310,2013-12-22 08:15:00
2:35 AM,60.4,56.5,87,29.90,5.0,NNW,9.2,-,0.10,Rain-Thunderstorm,Heavy Thunderstorms and Rain,330,2013-12-22 08:35:00
2:55 AM,60.3,56.3,87,29.90,10.0,NW,3.5,-,0.11,Rain,Rain,320,2013-12-22 08:55:00
3:15 AM,60.4,56.3,86,29.90,10.0,Calm,Calm,-,N/A,Thunderstorm,Unknown,0,2013-12-22 09:15:00
3:35 AM,60.4,56.1,86,29.90,10.0,North,3.5,-,N/A,,Unknown,10,2013-12-22 09:35:00
3:55 AM,60.4,55.8,85,29.89,10.0,North,3.5,-,N/A,Thunderstorm,Unknown,360,2013-12-22 09:55:00
4:15 AM,60.1,55.6,85,29.90,10.0,NNW,3.5,-,N/A,Thunderstorm,Unknown,340,2013-12-22 10:15:00
4:35 AM,59.9,55.6,86,29.90,10.0,NNW,4.6,-,N/A,Thunderstorm,Unknown,340,2013-12-22 10:35:00
4:55 AM,59.5,55.8,87,29.91,10.0,NNW,5.8,-,N/A,Rain-Thunderstorm,Light Thunderstorms and Rain,330,2013-12-22 10:55:00
5:15 AM,59.4,54.9,85,29.91,10.0,NE,3.5,-,N/A,Rain-Thunderstorm,Light Thunderstorms and Rain,40,2013-12-22 11:15:00
5:35 AM,59.2,54.9,86,29.92,10.0,NE,3.5,-,N/A,Rain-Thunderstorm,Light Thunderstorms and Rain,40,2013-12-22 11:35:00
5:55 AM,59.4,55.4,87,29.92,10.0,Calm,Calm,-,N/A,Thunderstorm,Unknown,0,2013-12-22 11:55:00
6:15 AM,59.4,55.6,87,29.92,10.0,NE,5.8,-,0.01,,Unknown,50,2013-12-22 12:15:00
6:35 AM,59.5,55.8,87,29.93,10.0,Calm,Calm,-,0.01,,Unknown,0,2013-12-22 12:35:00
6:55 AM,59.5,55.8,87,29.93,10.0,Calm,Calm,-,0.01,,Unknown,0,2013-12-22 12:55:00
7:15 AM,59.5,55.8,87,29.93,10.0,ESE,3.5,-,N/A,Thunderstorm,Unknown,110,2013-12-22 13:15:00
7:35 AM,59.5,55.8,87,29.95,10.0,Calm,Calm,-,N/A,,Unknown,0,2013-12-22 13:35:00
7:55 AM,59.5,55.8,87,29.95,10.0,Calm,Calm,-,N/A,,Unknown,0,2013-12-22 13:55:00
8:15 AM,60.1,56.3,87,29.96,10.0,Calm,Calm,-,N/A,,Unknown,0,2013-12-22 14:15:00
8:40 AM,60.3,56.1,86,29.97,10.0,Calm,Calm,-,N/A,,Unknown,0,2013-12-22 14:40:00
8:55 AM,60.8,56.3,85,29.97,10.0,NNE,3.5,-,N/A,Thunderstorm,Unknown,30,2013-12-22 14:55:00
9:15 AM,61.0,55.9,83,29.98,10.0,Calm,Calm,-,N/A,Thunderstorm,Unknown,0,2013-12-22 15:15:00
9:35 AM,61.7,56.1,82,30.00,10.0,Calm,Calm,-,N/A,Thunderstorm,Unknown,0,2013-12-22 15:35:00
9:55 AM,61.5,55.9,82,30.02,10.0,Calm,Calm,-,N/A,Thunderstorm,Unknown,0,2013-12-22 15:55:00
10:15 AM,61.7,56.1,82,30.02,10.0,Calm,Calm,-,N/A,Thunderstorm,Thunderstorm,0,2013-12-22 16:15:00
10:35 AM,61.9,56.8,84,30.01,10.0,Calm,Calm,-,N/A,,Unknown,0,2013-12-22 16:35:00
10:55 AM,62.2,56.1,80,30.01,10.0,Calm,Calm,-,N/A,Thunderstorm,Thunderstorm,0,2013-12-22 16:55:00
11:15 AM,63.1,56.8,80,30.01,10.0,SE,3.5,-,N/A,,Unknown,130,2013-12-22 17:15:00
11:35 AM,63.5,55.4,75,30.00,10.0,Calm,Calm,-,N/A,Thunderstorm,Unknown,0,2013-12-22 17:35:00
11:55 AM,64.0,55.9,75,30.00,10.0,ESE,6.9,-,N/A,Thunderstorm,Unknown,120,2013-12-22 17:55:00
12:15 PM,64.2,55.9,74,30.00,10.0,Calm,Calm,-,N/A,Thunderstorm,Unknown,0,2013-12-22 18:15:00
12:35 PM,65.1,55.4,71,29.98,10.0,Calm,Calm,-,N/A,Thunderstorm,Unknown,0,2013-12-22 18:35:00
12:55 PM,65.5,54.3,67,29.97,10.0,NNW,5.8,-,N/A,Thunderstorm,Unknown,340,2013-12-22 18:55:00
1:15 PM,66.7,55.0,66,29.98,10.0,North,3.5,-,N/A,Thunderstorm,Unknown,10,2013-12-22 19:15:00
1:35 PM,66.7,54.5,65,29.98,10.0,NW,4.6,-,N/A,Thunderstorm,Unknown,320,2013-12-22 19:35:00
1:55 PM,66.9,54.7,65,29.97,10.0,NNW,3.5,-,N/A,,Unknown,340,2013-12-22 19:55:00
2:15 PM,67.6,54.5,63,29.96,10.0,NNW,4.6,-,N/A,Thunderstorm,Unknown,340,2013-12-22 20:15:00
2:35 PM,67.1,55.4,66,29.98,10.0,NNW,3.5,-,N/A,Thunderstorm,Thunderstorm,340,2013-12-22 20:35:00
2:55 PM,67.1,55.8,67,29.98,10.0,Calm,Calm,-,N/A,,Unknown,0,2013-12-22 20:55:00
3:15 PM,66.2,58.1,75,30.00,10.0,Calm,Calm,-,N/A,,Unknown,0,2013-12-22 21:15:00
3:35 PM,65.3,58.1,77,30.01,10.0,Calm,Calm,-,N/A,Rain-Thunderstorm,Light Thunderstorms and Rain,0,2013-12-22 21:35:00
3:55 PM,64.4,57.9,79,30.03,10.0,Calm,Calm,-,0.01,Rain-Thunderstorm,Light Thunderstorms and Rain,0,2013-12-22 21:55:00
4:15 PM,63.1,59.0,86,30.06,7.0,SSW,5.8,-,0.02,Rain-Thunderstorm,Thunderstorms and Rain,210,2013-12-22 22:15:00
4:35 PM,62.2,58.6,88,30.06,7.0,Calm,Calm,-,0.07,Rain,Light Rain,0,2013-12-22 22:35:00
4:55 PM,62.1,58.5,88,30.03,10.0,North,4.6,-,0.08,Rain-Thunderstorm,Light Thunderstorms and Rain,10,2013-12-22 22:55:00
5:15 PM,61.7,58.1,88,30.02,10.0,East,5.8,-,0.01,Rain,Rain,80,2013-12-22 23:15:00
5:35 PM,61.2,57.2,87,30.03,10.0,NNE,4.6,-,0.03,Rain-Thunderstorm,Light Thunderstorms and Rain,30,2013-12-22 23:35:00
5:55 PM,61.0,57.6,88,30.04,10.0,WNW,4.6,-,0.03,Thunderstorm,Unknown,300,2013-12-22 23:55:00
6:15 PM,61.3,57.6,87,30.07,10.0,South,6.9,-,N/A,,Unknown,170,2013-12-23 00:15:00
6:35 PM,60.8,57.4,88,30.09,10.0,South,5.8,-,0.04,Rain,Light Rain,180,2013-12-23 00:35:00
6:55 PM,60.3,56.8,88,30.09,10.0,Calm,Calm,-,0.08,Rain,Light Rain,0,2013-12-23 00:55:00
7:15 PM,59.9,56.3,88,30.09,10.0,SE,4.6,-,N/A,Rain,Light Rain,130,2013-12-23 01:15:00
7:35 PM,59.2,55.6,88,30.10,10.0,SSE,3.5,-,N/A,Thunderstorm,Unknown,160,2013-12-23 01:35:00
7:55 PM,59.0,55.0,87,30.08,7.0,ESE,4.6,-,0.07,Rain-Thunderstorm,Heavy Thunderstorms and Rain,120,2013-12-23 01:55:00
8:15 PM,58.5,54.9,88,30.08,10.0,ESE,4.6,-,0.02,Rain,Rain,120,2013-12-23 02:15:00
8:35 PM,58.3,54.7,88,30.11,10.0,Calm,Calm,-,0.04,Rain,Light Rain,0,2013-12-23 02:35:00
8:55 PM,58.3,54.9,88,30.13,10.0,Calm,Calm,-,0.05,,Light Drizzle,0,2013-12-23 02:55:00
9:15 PM,58.3,55.4,90,30.13,10.0,SSW,3.5,-,N/A,Rain,Light Rain,200,2013-12-23 03:15:00
9:35 PM,58.1,54.9,89,30.10,10.0,NNE,3.5,-,0.03,Rain,Light Rain,30,2013-12-23 03:35:00
9:55 PM,58.1,55.2,90,30.13,10.0,Calm,Calm,-,0.04,,Light Drizzle,0,2013-12-23 03:55:00
10:15 PM,58.1,55.0,90,30.16,10.0,West,4.6,-,N/A,Rain,Light Rain,270,2013-12-23 04:15:00
10:35 PM,57.9,55.2,91,30.13,10.0,Calm,Calm,-,0.01,Rain,Light Rain,0,2013-12-23 04:35:00
10:55 PM,58.1,55.4,91,30.16,10.0,Calm,Calm,-,0.01,,Unknown,0,2013-12-23 04:55:00
11:15 PM,58.1,55.4,91,30.17,10.0,Calm,Calm,-,N/A,,Unknown,0,2013-12-23 05:15:00
11:35 PM,58.1,55.4,91,30.16,10.0,Calm,Calm,-,N/A,,Unknown,0,2013-12-23 05:35:00
11:55 PM,58.1,55.2,90,30.16,10.0,NNW,4.6,-,0.01,Rain,Light Rain,330,2013-12-23 05:55:00